Time;durP1;ratioP1;P1;durP2;ratioP2;P2;SDS_P1;SDS_P2;PMS_P1;PMS_P2;Temp;Humidity;BMP_temperature;BMP_pressure;BME280_temperature;BME280_humidity;BME280_pressure;Samples;Min_cycle;Max_cycle;Signal;HPM_P1;HPM_P2
2023/09/08 00:00:09;;;;;;;482.23;453.98;;;27.00;99.90;;;;;;5051550;28;20025;-75
2023/09/08 00:02:35;;;;;;;425.48;402.00;;;27.00;99.90;;;;;;5050917;28;20045;-76
2023/09/08 00:05:01;;;;;;;441.80;416.45;;;27.10;99.90;;;;;;5052043;28;20375;-75
2023/09/08 00:07:27;;;;;;;392.48;371.42;;;27.10;99.90;;;;;;5051690;28;20044;-76
2023/09/08 00:09:53;;;;;;;360.63;341.48;;;27.00;99.90;;;;;;5052129;28;20025;-76
2023/09/08 00:12:20;;;;;;;440.40;415.70;;;26.90;99.90;;;;;;5051430;28;20029;-75
2023/09/08 00:14:46;;;;;;;451.25;425.23;;;26.90;99.90;;;;;;5051939;28;20045;-75
2023/09/08 00:17:12;;;;;;;391.08;369.52;;;26.90;99.90;;;;;;5051307;28;20059;-76
2023/09/08 00:19:38;;;;;;;379.75;359.88;;;26.90;99.90;;;;;;5052030;28;20486;-76
2023/09/08 00:22:05;;;;;;;407.20;384.95;;;26.90;99.90;;;;;;5049354;28;20391;-75
2023/09/08 00:24:31;;;;;;;448.58;423.13;;;26.80;99.90;;;;;;5051980;28;20028;-76
2023/09/08 00:26:58;;;;;;;470.63;443.58;;;26.70;99.90;;;;;;5049515;28;20044;-76
2023/09/08 00:29:24;;;;;;;582.90;548.50;;;26.60;99.90;;;;;;5051937;28;20021;-75
2023/09/08 00:31:50;;;;;;;540.75;509.58;;;26.60;99.90;;;;;;5050999;28;20052;-75
2023/09/08 00:34:16;;;;;;;479.50;451.98;;;26.60;99.90;;;;;;5051835;28;20467;-75
2023/09/08 00:36:42;;;;;;;405.73;384.15;;;26.50;99.90;;;;;;5052341;28;20039;-75
2023/09/08 00:39:08;;;;;;;438.63;413.70;;;26.50;99.90;;;;;;5055911;28;20472;-76
2023/09/08 00:41:34;;;;;;;430.17;406.65;;;26.40;99.90;;;;;;5053873;28;20033;-76
2023/09/08 00:44:00;;;;;;;352.38;333.48;;;26.40;99.90;;;;;;5055884;28;20056;-76
2023/09/08 00:46:27;;;;;;;386.45;365.25;;;26.40;99.90;;;;;;5054909;28;20040;-76
2023/09/08 00:48:54;;;;;;;385.55;364.42;;;26.30;99.90;;;;;;5054451;28;20028;-76
2023/09/08 00:51:21;;;;;;;361.60;342.25;;;26.20;99.90;;;;;;5054347;28;20041;-76
2023/09/08 00:53:47;;;;;;;339.88;322.02;;;26.20;99.90;;;;;;5055564;28;20036;-76
2023/09/08 00:56:13;;;;;;;372.55;352.48;;;26.30;99.90;;;;;;5054806;28;20032;-76
2023/09/08 00:58:39;;;;;;;300.38;284.70;;;26.30;99.90;;;;;;5055307;28;20059;-76
2023/09/08 01:01:06;;;;;;;281.85;266.90;;;26.20;99.90;;;;;;5053086;28;20037;-76
2023/09/08 01:03:32;;;;;;;298.48;283.05;;;26.20;99.90;;;;;;5055583;28;20041;-76
2023/09/08 01:05:59;;;;;;;300.70;285.40;;;26.10;99.90;;;;;;5054774;28;20044;-76
2023/09/08 01:08:25;;;;;;;307.98;291.58;;;26.10;99.90;;;;;;5053879;28;20052;-76
2023/09/08 01:10:51;;;;;;;314.52;297.70;;;26.20;99.90;;;;;;5053441;28;20028;-76
2023/09/08 01:13:17;;;;;;;225.23;213.27;;;26.10;99.90;;;;;;5054103;28;20041;-76
2023/09/08 01:15:44;;;;;;;188.38;178.40;;;26.00;99.90;;;;;;5054537;28;20048;-76
2023/09/08 01:18:10;;;;;;;196.93;186.77;;;26.00;99.90;;;;;;5055196;28;20565;-76
2023/09/08 01:20:45;;;;;;;237.30;224.65;;;25.90;99.90;;;;;;5053585;28;20025;-76
2023/09/08 01:23:19;;;;;;;197.68;187.10;;;26.00;99.90;;;;;;5055207;28;20040;-76
2023/09/08 01:26:08;;;;;;;204.02;193.30;;;25.90;99.90;;;;;;5052217;28;20041;-75
2023/09/08 01:28:34;;;;;;;207.25;196.77;;;25.90;99.90;;;;;;5055130;28;20041;-76
2023/09/08 01:31:00;;;;;;;218.07;207.05;;;25.90;99.90;;;;;;5036400;28;20045;-76
2023/09/08 01:33:26;;;;;;;238.65;226.32;;;26.00;99.90;;;;;;5034927;28;20036;-76
2023/09/08 01:35:52;;;;;;;237.57;225.40;;;26.00;99.90;;;;;;5022602;28;20041;-76
2023/09/08 01:38:20;;;;;;;262.45;249.07;;;26.00;99.90;;;;;;5053026;28;20033;-76
2023/09/08 01:40:46;;;;;;;238.23;225.98;;;26.00;99.90;;;;;;5054022;28;20036;-76
2023/09/08 01:43:12;;;;;;;228.45;216.80;;;25.90;99.90;;;;;;5054752;28;20037;-76
2023/09/08 01:45:38;;;;;;;236.00;223.98;;;26.00;99.90;;;;;;5053945;28;20487;-75
2023/09/08 01:48:05;;;;;;;265.02;251.68;;;26.00;99.90;;;;;;5054337;28;20032;-76
2023/09/08 01:50:31;;;;;;;240.07;227.55;;;26.00;99.90;;;;;;5054032;28;20028;-76
2023/09/08 01:52:57;;;;;;;218.65;207.50;;;26.00;99.90;;;;;;5054659;28;20025;-76
2023/09/08 01:55:23;;;;;;;210.48;199.85;;;25.90;99.90;;;;;;5053847;28;20036;-75
2023/09/08 01:57:49;;;;;;;227.45;215.65;;;25.90;99.90;;;;;;5054463;28;20044;-76
2023/09/08 02:00:15;;;;;;;253.02;239.93;;;25.70;99.90;;;;;;5053442;28;20420;-76
2023/09/08 02:02:41;;;;;;;219.85;208.15;;;25.60;99.90;;;;;;5054444;28;20051;-75
2023/09/08 02:05:08;;;;;;;208.52;197.98;;;25.60;99.90;;;;;;5053067;28;20033;-76
2023/09/08 02:07:34;;;;;;;213.25;201.57;;;25.60;99.90;;;;;;5053048;28;20475;-76
2023/09/08 02:10:01;;;;;;;201.20;190.75;;;25.60;99.90;;;;;;5052760;28;20041;-76
2023/09/08 02:12:27;;;;;;;205.82;194.88;;;25.50;99.90;;;;;;5053799;28;20439;-76
2023/09/08 02:14:53;;;;;;;192.63;182.27;;;25.50;99.90;;;;;;5053982;28;20419;-76
2023/09/08 02:17:19;;;;;;;200.45;189.75;;;25.40;99.90;;;;;;5053225;28;20036;-76
2023/09/08 02:19:45;;;;;;;215.00;203.65;;;25.40;99.90;;;;;;5052643;28;20037;-76
2023/09/08 02:22:11;;;;;;;193.07;182.88;;;25.40;99.90;;;;;;5053148;28;20040;-76
2023/09/08 02:24:37;;;;;;;192.80;182.68;;;25.40;99.90;;;;;;5054109;28;20033;-76
2023/09/08 02:27:03;;;;;;;192.55;182.60;;;25.40;99.90;;;;;;5052037;28;20048;-76
2023/09/08 02:29:30;;;;;;;191.32;180.88;;;25.40;99.90;;;;;;5053917;28;20033;-76
2023/09/08 02:31:56;;;;;;;202.95;192.40;;;25.40;99.90;;;;;;5050836;28;20033;-76
2023/09/08 02:34:23;;;;;;;149.48;140.93;;;25.30;99.90;;;;;;5053662;28;20029;-76
2023/09/08 02:36:50;;;;;;;158.23;149.82;;;25.20;99.90;;;;;;5053137;28;20459;-75
2023/09/08 02:39:16;;;;;;;185.23;174.90;;;25.20;99.90;;;;;;5053282;28;20033;-76
2023/09/08 02:41:42;;;;;;;139.70;131.68;;;25.30;99.90;;;;;;5053335;28;20041;-76
2023/09/08 02:44:09;;;;;;;111.00;104.75;;;25.20;99.90;;;;;;5053709;28;20356;-76
2023/09/08 02:46:35;;;;;;;109.45;102.68;;;25.10;99.90;;;;;;5050916;28;20108;-76
2023/09/08 02:49:01;;;;;;;100.28;94.40;;;25.10;99.90;;;;;;5053598;28;20036;-76
2023/09/08 02:51:27;;;;;;;107.10;100.93;;;25.20;99.90;;;;;;5052749;28;20391;-77
2023/09/08 02:53:53;;;;;;;102.30;96.30;;;25.20;99.90;;;;;;5053550;28;20033;-76
2023/09/08 02:56:19;;;;;;;101.22;95.35;;;25.20;99.90;;;;;;5053107;28;20415;-76
2023/09/08 02:58:45;;;;;;;101.32;95.43;;;25.20;99.90;;;;;;5053189;28;20032;-75
2023/09/08 03:01:14;;;;;;;103.15;96.45;;;25.20;99.90;;;;;;5052465;28;20040;-76
2023/09/08 03:03:43;;;;;;;100.20;94.63;;;25.20;99.90;;;;;;5051211;28;20041;-76
2023/09/08 03:06:10;;;;;;;152.98;144.52;;;25.10;99.90;;;;;;5051205;28;20021;-76
2023/09/08 03:08:39;;;;;;;121.78;114.63;;;25.00;99.90;;;;;;5053297;28;20044;-76
2023/09/08 03:11:05;;;;;;;176.18;166.55;;;25.10;99.90;;;;;;5051420;28;20467;-76
2023/09/08 03:13:33;;;;;;;116.32;109.65;;;25.00;99.90;;;;;;5051809;28;20053;-76
2023/09/08 03:16:06;;;;;;;102.07;96.30;;;24.90;99.90;;;;;;5051824;28;20060;-76
2023/09/08 03:18:33;;;;;;;134.98;127.75;;;25.00;99.90;;;;;;5053022;28;20029;-76
2023/09/08 03:21:08;;;;;;;115.45;108.72;;;25.00;99.90;;;;;;5050284;28;20104;-76
2023/09/08 03:23:42;;;;;;;122.88;116.13;;;25.00;99.90;;;;;;5050813;28;20052;-76
2023/09/08 03:26:08;;;;;;;126.70;119.85;;;24.90;99.90;;;;;;5034226;28;20037;-76
2023/09/08 03:28:34;;;;;;;166.68;157.93;;;24.90;99.90;;;;;;5052879;28;20029;-76
2023/09/08 03:31:04;;;;;;;131.05;123.68;;;25.00;99.90;;;;;;5051966;28;20033;-76
2023/09/08 03:33:30;;;;;;;122.75;115.88;;;25.00;99.90;;;;;;4999099;28;20046;-76
2023/09/08 03:35:56;;;;;;;113.93;107.38;;;24.90;99.90;;;;;;5038757;28;20025;-77
2023/09/08 03:38:22;;;;;;;128.85;121.20;;;24.90;99.90;;;;;;5052516;28;20037;-76
2023/09/08 03:40:48;;;;;;;121.90;115.28;;;24.90;99.90;;;;;;5052185;28;20025;-75
2023/09/08 03:43:15;;;;;;;99.97;94.00;;;24.70;99.90;;;;;;5052520;28;20044;-76
2023/09/08 03:45:41;;;;;;;93.93;87.55;;;24.60;99.90;;;;;;5051833;28;20033;-76
2023/09/08 03:48:07;;;;;;;83.53;78.25;;;24.60;99.90;;;;;;5052395;28;20025;-76
2023/09/08 03:50:34;;;;;;;88.60;82.82;;;24.50;99.90;;;;;;5051806;28;20028;-76
2023/09/08 03:53:00;;;;;;;98.75;92.15;;;24.50;99.90;;;;;;5051128;28;20036;-76
2023/09/08 03:55:26;;;;;;;72.28;67.82;;;24.40;99.90;;;;;;5052007;28;20032;-75
2023/09/08 03:57:52;;;;;;;110.53;104.40;;;24.40;99.90;;;;;;5052455;28;20379;-76
2023/09/08 04:00:21;;;;;;;89.93;84.55;;;24.50;99.90;;;;;;5051302;28;20025;-76
2023/09/08 04:02:48;;;;;;;93.57;87.82;;;24.60;99.90;;;;;;5051947;28;20045;-76
2023/09/08 04:05:16;;;;;;;91.07;85.60;;;24.60;99.90;;;;;;5051382;28;20037;-76
2023/09/08 04:07:42;;;;;;;89.30;83.75;;;24.50;99.90;;;;;;5050996;28;20040;-76
2023/09/08 04:10:08;;;;;;;91.40;85.55;;;24.50;99.90;;;;;;5051993;28;20037;-76
2023/09/08 04:12:34;;;;;;;84.55;78.85;;;24.50;99.90;;;;;;5031893;28;20040;-76
2023/09/08 04:15:00;;;;;;;107.75;101.43;;;24.50;99.90;;;;;;5031981;28;20518;-76
2023/09/08 04:17:27;;;;;;;121.10;113.75;;;24.40;99.90;;;;;;5030407;28;20049;-76
2023/09/08 04:19:53;;;;;;;127.78;120.53;;;24.30;99.90;;;;;;5031722;28;20037;-76
2023/09/08 04:22:19;;;;;;;103.82;97.25;;;24.30;99.90;;;;;;5031619;28;20036;-76
2023/09/08 04:24:45;;;;;;;87.90;82.72;;;24.30;99.90;;;;;;5032134;28;20052;-75
2023/09/08 04:27:11;;;;;;;85.25;80.15;;;24.30;99.90;;;;;;5032015;28;20029;-76
2023/09/08 04:29:37;;;;;;;97.25;91.25;;;24.40;99.90;;;;;;5032132;28;20423;-76
2023/09/08 04:32:08;;;;;;;93.38;87.57;;;24.40;99.90;;;;;;5047547;28;20475;-76
2023/09/08 04:34:39;;;;;;;85.85;80.53;;;24.50;99.90;;;;;;5051685;28;20041;-76
2023/09/08 04:37:05;;;;;;;83.88;78.45;;;24.50;99.90;;;;;;5049810;28;20045;-76
2023/09/08 04:39:32;;;;;;;76.38;71.45;;;24.40;99.90;;;;;;5051683;28;20040;-76
2023/09/08 04:41:58;;;;;;;97.63;92.10;;;24.30;99.90;;;;;;5051593;28;20024;-76
2023/09/08 04:44:24;;;;;;;99.53;93.25;;;24.20;99.90;;;;;;5051609;28;20052;-76
2023/09/08 04:46:51;;;;;;;82.85;77.28;;;24.10;99.90;;;;;;5051008;28;20033;-76
2023/09/08 04:49:17;;;;;;;80.60;75.80;;;24.10;99.90;;;;;;5050343;28;20382;-76
2023/09/08 04:51:44;;;;;;;86.22;80.65;;;24.00;99.90;;;;;;5051499;28;20033;-76
2023/09/08 04:54:10;;;;;;;80.38;75.55;;;24.00;99.90;;;;;;5051773;28;20032;-76
2023/09/08 04:56:38;;;;;;;87.90;82.05;;;23.90;99.90;;;;;;5051485;28;20033;-76
2023/09/08 04:59:04;;;;;;;84.28;79.05;;;23.90;99.90;;;;;;5050329;28;20025;-76
2023/09/08 05:01:32;;;;;;;82.38;76.90;;;23.90;99.90;;;;;;5050860;28;20041;-76
2023/09/08 05:04:01;;;;;;;94.68;89.07;;;23.90;99.90;;;;;;5051362;28;20056;-76
2023/09/08 05:06:27;;;;;;;92.60;86.15;;;24.00;99.90;;;;;;5050833;28;20494;-76
2023/09/08 05:08:53;;;;;;;99.05;92.95;;;23.90;99.90;;;;;;5050471;28;20041;-76
2023/09/08 05:11:19;;;;;;;110.82;104.30;;;24.00;99.90;;;;;;5051016;28;20042;-76
2023/09/08 05:13:48;;;;;;;120.32;113.63;;;24.00;99.90;;;;;;5051498;28;20049;-76
2023/09/08 05:16:14;;;;;;;83.82;78.35;;;23.90;99.90;;;;;;5050150;28;20033;-76
2023/09/08 05:18:40;;;;;;;76.88;72.10;;;23.90;99.90;;;;;;5051559;28;20032;-76
2023/09/08 05:21:07;;;;;;;101.70;95.22;;;23.90;99.90;;;;;;5050997;28;20024;-77
2023/09/08 05:23:33;;;;;;;115.13;108.10;;;23.90;99.90;;;;;;5051884;28;20048;-76
2023/09/08 05:26:00;;;;;;;111.72;104.55;;;23.80;99.90;;;;;;5054705;28;20025;-76
2023/09/08 05:28:26;;;;;;;88.97;83.40;;;23.80;99.90;;;;;;5054891;28;20045;-76
2023/09/08 05:30:55;;;;;;;83.55;78.22;;;23.80;99.90;;;;;;5053924;28;20037;-76
2023/09/08 05:33:21;;;;;;;92.45;86.78;;;23.80;99.90;;;;;;5033755;28;20037;-77
2023/09/08 05:35:47;;;;;;;85.20;79.30;;;23.80;99.90;;;;;;5039854;28;20021;-76
2023/09/08 05:38:14;;;;;;;78.63;73.45;;;23.80;99.90;;;;;;5053658;28;20390;-76
2023/09/08 05:40:40;;;;;;;96.40;90.53;;;23.80;99.90;;;;;;5054118;28;20471;-76
2023/09/08 05:43:06;;;;;;;77.88;72.65;;;23.80;99.90;;;;;;5054693;28;20040;-76
2023/09/08 05:45:32;;;;;;;102.78;96.47;;;23.80;99.90;;;;;;5053693;28;20391;-76
2023/09/08 05:47:58;;;;;;;98.22;92.25;;;23.80;99.90;;;;;;5054676;28;20048;-76
2023/09/08 05:50:24;;;;;;;93.13;86.97;;;23.80;99.90;;;;;;5053016;28;20021;-77
2023/09/08 05:52:51;;;;;;;112.63;106.03;;;23.70;99.90;;;;;;5054589;28;20017;-76
2023/09/08 05:55:17;;;;;;;105.55;99.32;;;23.80;99.90;;;;;;5054164;28;20032;-76
2023/09/08 05:57:43;;;;;;;131.23;123.78;;;23.80;99.90;;;;;;5054565;28;20028;-76
2023/09/08 06:00:10;;;;;;;159.13;150.02;;;23.70;99.90;;;;;;5051479;28;20041;-76
2023/09/08 06:02:36;;;;;;;176.45;166.32;;;23.80;99.90;;;;;;5034398;28;20036;-76
2023/09/08 06:05:02;;;;;;;134.30;126.30;;;23.90;99.90;;;;;;5034496;28;20029;-76
2023/09/08 06:07:29;;;;;;;131.35;123.30;;;23.80;99.90;;;;;;5053204;28;20056;-76
2023/09/08 06:09:56;;;;;;;149.98;141.50;;;23.80;99.90;;;;;;5054235;28;20463;-77
2023/09/08 06:12:22;;;;;;;116.07;109.00;;;23.90;99.90;;;;;;5053759;28;20491;-77
2023/09/08 06:14:48;;;;;;;150.88;141.65;;;23.90;99.90;;;;;;5053706;28;20044;-76
2023/09/08 06:17:14;;;;;;;115.90;108.63;;;23.80;99.90;;;;;;5051837;28;20064;-76
2023/09/08 06:19:40;;;;;;;176.38;166.73;;;23.80;99.90;;;;;;5054194;28;20025;-76
2023/09/08 06:22:06;;;;;;;157.88;148.88;;;23.80;99.90;;;;;;5052427;28;20048;-77
2023/09/08 06:24:32;;;;;;;126.57;119.63;;;23.90;99.90;;;;;;5054034;28;20416;-76
2023/09/08 06:26:58;;;;;;;129.95;122.32;;;24.00;99.90;;;;;;5051655;28;20045;-76
2023/09/08 06:29:24;;;;;;;152.73;143.85;;;24.00;99.90;;;;;;5053539;28;20032;-76
2023/09/08 06:31:51;;;;;;;159.90;150.82;;;24.10;99.90;;;;;;5053158;28;20037;-77
2023/09/08 06:34:20;;;;;;;183.63;173.73;;;24.10;99.90;;;;;;5053522;28;20029;-76
2023/09/08 06:36:46;;;;;;;201.65;190.55;;;24.10;99.90;;;;;;5053346;28;20399;-76
2023/09/08 06:39:12;;;;;;;179.10;169.57;;;24.20;99.90;;;;;;5053813;28;20029;-76
2023/09/08 06:41:38;;;;;;;168.90;159.00;;;24.20;99.90;;;;;;5052077;28;20029;-76
2023/09/08 06:44:05;;;;;;;149.85;141.32;;;24.20;99.90;;;;;;5053328;28;20040;-76
2023/09/08 06:46:31;;;;;;;158.77;149.57;;;24.30;99.90;;;;;;5052887;28;20490;-76
2023/09/08 06:48:57;;;;;;;165.15;155.85;;;24.40;99.90;;;;;;5053524;28;20043;-76
2023/09/08 06:51:23;;;;;;;167.63;158.05;;;24.40;99.90;;;;;;5052944;28;20048;-76
2023/09/08 06:53:59;;;;;;;176.05;166.02;;;24.20;99.90;;;;;;5053702;28;20387;-77
2023/09/08 06:56:26;;;;;;;197.75;186.95;;;24.30;99.90;;;;;;5053115;28;20024;-77
2023/09/08 06:58:52;;;;;;;229.38;216.65;;;24.40;99.90;;;;;;5053227;28;20021;-76
2023/09/08 07:01:18;;;;;;;204.57;193.05;;;24.30;99.90;;;;;;5052479;28;20395;-76
2023/09/08 07:03:44;;;;;;;206.75;195.25;;;24.20;99.90;;;;;;5053188;28;20052;-76
2023/09/08 07:06:11;;;;;;;208.10;196.82;;;24.40;99.90;;;;;;5052872;28;20048;-76
2023/09/08 07:08:37;;;;;;;209.20;197.75;;;24.50;99.90;;;;;;5052022;28;20035;-76
2023/09/08 07:11:03;;;;;;;209.70;198.73;;;24.50;99.90;;;;;;5050575;28;20691;-75
2023/09/08 07:13:29;;;;;;;232.70;219.98;;;24.70;99.90;;;;;;5052617;28;20049;-76
2023/09/08 07:15:55;;;;;;;225.52;213.35;;;24.80;99.90;;;;;;5052350;28;20036;-75
2023/09/08 07:18:21;;;;;;;292.90;277.35;;;24.60;99.90;;;;;;5053004;28;20029;-75
2023/09/08 07:20:48;;;;;;;234.18;222.05;;;24.80;99.90;;;;;;5052209;28;20037;-75
2023/09/08 07:23:16;;;;;;;278.80;264.30;;;24.60;99.90;;;;;;5052349;28;20037;-76
2023/09/08 07:25:46;;;;;;;321.65;304.55;;;24.80;99.90;;;;;;5052542;28;20037;-75
2023/09/08 07:28:12;;;;;;;327.55;310.30;;;25.10;99.90;;;;;;5052526;28;20370;-75
2023/09/08 07:30:38;;;;;;;338.15;320.33;;;25.30;99.90;;;;;;5051980;28;20040;-75
2023/09/08 07:33:05;;;;;;;348.48;330.50;;;25.20;99.90;;;;;;5052422;28;20044;-75
2023/09/08 07:35:31;;;;;;;368.08;348.27;;;25.20;99.90;;;;;;5051872;28;20041;-75
2023/09/08 07:37:58;;;;;;;318.05;301.45;;;25.30;99.90;;;;;;5052741;28;20025;-75
2023/09/08 07:40:24;;;;;;;324.40;308.02;;;25.60;99.90;;;;;;5051931;28;20412;-76
2023/09/08 07:42:50;;;;;;;343.05;324.73;;;25.70;99.90;;;;;;5051030;28;20025;-76
2023/09/08 07:45:16;;;;;;;336.38;318.15;;;25.50;99.90;;;;;;5051845;28;20044;-75
2023/09/08 07:47:43;;;;;;;352.90;332.98;;;25.40;99.90;;;;;;5051793;28;20029;-75
2023/09/08 07:50:23;;;;;;;390.05;367.75;;;25.40;99.90;;;;;;5051754;28;20052;-75
2023/09/08 07:52:49;;;;;;;402.33;380.38;;;25.40;99.90;;;;;;5032640;28;20045;-75
2023/09/08 07:55:16;;;;;;;452.35;426.05;;;25.50;99.90;;;;;;5032948;28;20021;-75
2023/09/08 07:57:42;;;;;;;397.38;375.38;;;25.60;99.90;;;;;;5050845;28;20036;-75
2023/09/08 08:00:10;;;;;;;401.80;379.45;;;25.80;99.90;;;;;;5051148;28;20048;-74
2023/09/08 08:02:38;;;;;;;409.55;386.45;;;26.00;99.90;;;;;;5032718;28;20056;-75
2023/09/08 08:05:04;;;;;;;418.80;395.75;;;26.00;99.90;;;;;;5031967;28;20068;-75
2023/09/08 08:07:31;;;;;;;422.45;398.25;;;26.20;99.90;;;;;;5051408;28;20033;-75
2023/09/08 08:09:57;;;;;;;426.48;401.98;;;26.10;99.90;;;;;;5052296;28;20368;-75
2023/09/08 08:12:23;;;;;;;393.95;371.83;;;26.10;99.90;;;;;;5051235;28;20037;-75
2023/09/08 08:14:49;;;;;;;382.30;360.92;;;26.00;99.90;;;;;;5051971;28;20049;-75
2023/09/08 08:17:18;;;;;;;412.60;389.45;;;26.00;99.90;;;;;;5051215;28;20048;-75
2023/09/08 08:19:44;;;;;;;449.60;424.63;;;26.00;99.90;;;;;;5051635;28;20048;-75
2023/09/08 08:22:10;;;;;;;359.10;339.95;;;25.80;99.90;;;;;;5051678;28;20029;-75
2023/09/08 08:24:36;;;;;;;355.42;336.05;;;25.70;99.90;;;;;;5033985;28;20045;-75
2023/09/08 08:27:02;;;;;;;390.27;369.10;;;25.50;99.90;;;;;;5051282;28;20029;-75
2023/09/08 08:29:29;;;;;;;377.77;357.00;;;25.70;99.90;;;;;;5051964;28;20041;-76
2023/09/08 08:31:55;;;;;;;379.52;357.85;;;25.50;99.90;;;;;;5051159;28;20037;-75
2023/09/08 08:34:21;;;;;;;368.38;348.02;;;25.60;99.90;;;;;;5052040;28;20033;-75
2023/09/08 08:36:47;;;;;;;399.95;378.30;;;25.90;99.90;;;;;;5051554;28;20051;-75
2023/09/08 08:39:13;;;;;;;389.17;367.60;;;25.90;99.90;;;;;;5051656;28;20037;-75
2023/09/08 08:41:41;;;;;;;441.30;415.27;;;25.80;99.90;;;;;;5051387;28;20021;-76
2023/09/08 08:44:09;;;;;;;389.20;368.40;;;25.70;99.90;;;;;;5051910;28;20033;-75
2023/09/08 08:46:36;;;;;;;361.75;342.17;;;25.80;99.90;;;;;;5049963;28;20041;-75
2023/09/08 08:49:05;;;;;;;398.20;376.67;;;25.80;99.90;;;;;;5050624;28;20033;-75
2023/09/08 08:51:31;;;;;;;364.75;345.40;;;25.80;99.90;;;;;;5051458;28;20029;-75
2023/09/08 08:53:58;;;;;;;376.70;356.40;;;25.70;99.90;;;;;;5050166;28;20096;-75
2023/09/08 08:56:24;;;;;;;434.40;409.55;;;25.80;99.90;;;;;;5051445;28;20036;-75
2023/09/08 08:58:50;;;;;;;485.67;457.48;;;26.10;99.90;;;;;;5054230;28;20498;-75
2023/09/08 09:01:18;;;;;;;480.67;452.35;;;26.20;99.90;;;;;;5053188;28;20040;-75
2023/09/08 09:03:48;;;;;;;526.90;495.38;;;26.40;99.90;;;;;;5055163;28;20044;-75
2023/09/08 09:06:15;;;;;;;552.47;518.08;;;26.30;99.90;;;;;;5054097;28;20104;-75
2023/09/08 09:08:43;;;;;;;535.08;503.27;;;26.30;99.90;;;;;;5055255;28;20040;-75
2023/09/08 09:11:09;;;;;;;551.95;518.30;;;26.20;99.90;;;;;;5052927;28;20047;-75
2023/09/08 09:13:35;;;;;;;551.25;517.55;;;26.50;99.90;;;;;;5055276;28;20060;-75
2023/09/08 09:16:03;;;;;;;511.90;481.77;;;26.70;99.90;;;;;;5054815;28;20033;-75
2023/09/08 09:18:32;;;;;;;537.22;504.75;;;26.90;99.90;;;;;;5054246;28;20037;-75
2023/09/08 09:20:59;;;;;;;515.90;484.70;;;26.80;99.90;;;;;;5036356;28;20467;-75
2023/09/08 09:23:32;;;;;;;496.75;467.63;;;26.80;99.90;;;;;;5037234;28;20041;-75
2023/09/08 09:25:58;;;;;;;556.58;522.50;;;26.70;99.90;;;;;;5054827;28;20463;-75
2023/09/08 09:28:25;;;;;;;524.35;493.30;;;26.80;99.90;;;;;;5054797;28;20655;-75
2023/09/08 09:30:54;;;;;;;574.40;538.30;;;26.80;99.90;;;;;;5053992;28;20395;-75
2023/09/08 09:33:20;;;;;;;558.22;523.85;;;26.80;99.90;;;;;;5053036;28;20040;-75
2023/09/08 09:35:49;;;;;;;569.53;534.47;;;26.90;99.90;;;;;;5052622;28;20055;-75
2023/09/08 09:38:16;;;;;;;514.88;484.85;;;27.10;99.90;;;;;;5054208;28;20036;-75
2023/09/08 09:40:42;;;;;;;524.38;493.73;;;27.10;99.90;;;;;;5053402;28;20025;-75
2023/09/08 09:43:09;;;;;;;541.10;508.92;;;27.20;99.90;;;;;;5054721;28;20037;-75
2023/09/08 09:45:36;;;;;;;497.13;468.25;;;27.40;99.90;;;;;;5052705;28;20052;-75
2023/09/08 09:48:03;;;;;;;485.45;457.67;;;27.50;99.90;;;;;;5052912;28;20526;-75
2023/09/08 09:50:34;;;;;;;508.85;478.45;;;27.50;99.90;;;;;;5054009;28;20041;-75
2023/09/08 09:53:01;;;;;;;465.40;438.15;;;27.60;99.90;;;;;;5053954;28;20037;-75
2023/09/08 09:55:27;;;;;;;393.05;370.63;;;27.80;99.90;;;;;;5054294;28;20029;-75
2023/09/08 09:58:03;;;;;;;419.45;395.50;;;27.90;99.90;;;;;;5054735;28;20029;-75
2023/09/08 10:00:30;;;;;;;500.95;470.27;;;27.90;99.90;;;;;;5036041;28;20048;-75
2023/09/08 10:02:56;;;;;;;361.55;341.42;;;28.30;99.90;;;;;;5054268;28;20040;-75
2023/09/08 10:05:23;;;;;;;449.85;423.98;;;28.50;99.90;;;;;;5052997;28;20044;-75
2023/09/08 10:07:50;;;;;;;513.65;482.77;;;28.70;99.90;;;;;;5054164;28;20029;-75
2023/09/08 10:10:16;;;;;;;422.88;398.75;;;28.80;99.90;;;;;;5053233;28;20029;-75
2023/09/08 10:12:44;;;;;;;397.63;375.67;;;28.90;99.90;;;;;;5053153;28;20051;-75
2023/09/08 10:15:10;;;;;;;489.77;460.92;;;28.90;99.90;;;;;;5052732;28;20041;-74
2023/09/08 10:17:36;;;;;;;466.95;440.30;;;29.00;99.90;;;;;;5052968;28;20032;-74
2023/09/08 10:20:10;;;;;;;455.60;429.05;;;29.20;99.90;;;;;;5052963;28;20037;-75
2023/09/08 10:22:39;;;;;;;525.83;494.42;;;29.30;99.90;;;;;;5053955;28;20147;-75
2023/09/08 10:25:06;;;;;;;377.02;355.33;;;29.50;99.90;;;;;;5052719;28;20049;-75
2023/09/08 10:27:32;;;;;;;340.85;322.40;;;29.50;99.90;;;;;;5052586;28;20033;-75
2023/09/08 10:30:00;;;;;;;442.83;416.60;;;29.50;99.90;;;;;;5052787;28;20043;-75
2023/09/08 10:32:26;;;;;;;441.90;416.85;;;29.40;99.90;;;;;;5051730;28;20037;-75
2023/09/08 10:34:52;;;;;;;520.33;489.05;;;29.40;99.90;;;;;;5052684;28;20040;-75
2023/09/08 10:37:19;;;;;;;473.38;445.70;;;29.30;99.90;;;;;;5051959;28;20025;-75
2023/09/08 10:39:45;;;;;;;444.50;419.92;;;29.40;99.90;;;;;;5053890;28;20040;-75
2023/09/08 10:42:20;;;;;;;443.55;418.75;;;29.30;99.90;;;;;;5053364;28;20025;-75
2023/09/08 10:44:49;;;;;;;420.17;396.90;;;29.30;99.90;;;;;;5053791;28;20474;-75
2023/09/08 10:47:25;;;;;;;579.97;544.70;;;29.30;99.90;;;;;;5052447;28;20056;-75
2023/09/08 10:49:53;;;;;;;526.78;495.25;;;29.20;99.90;;;;;;5051886;28;20052;-75
2023/09/08 10:52:22;;;;;;;518.05;487.75;;;29.20;99.90;;;;;;5053015;28;20037;-75
2023/09/08 10:54:49;;;;;;;584.92;550.28;;;29.20;99.90;;;;;;5052506;28;20040;-74
2023/09/08 10:57:17;;;;;;;593.38;557.53;;;29.20;99.90;;;;;;5052993;28;20047;-75
2023/09/08 10:59:52;;;;;;;613.85;576.42;;;29.10;99.90;;;;;;5052772;28;20045;-75
2023/09/08 11:02:41;;;;;;;464.88;438.77;;;29.10;99.90;;;;;;5051758;28;20056;-75
2023/09/08 11:05:08;;;;;;;519.65;488.38;;;29.20;99.90;;;;;;5052803;28;20479;-75
2023/09/08 11:07:37;;;;;;;488.30;460.90;;;29.40;99.90;;;;;;5052651;28;20491;-75
2023/09/08 11:10:04;;;;;;;671.67;629.45;;;29.50;99.90;;;;;;5053163;28;20040;-74
2023/09/08 11:12:31;;;;;;;536.72;506.50;;;29.60;99.90;;;;;;5034528;28;20041;-75
2023/09/08 11:15:00;;;;;;;509.98;481.80;;;29.80;99.90;;;;;;5051370;28;20049;-75
2023/09/08 11:17:27;;;;;;;527.15;497.35;;;29.90;99.90;;;;;;5051662;28;20108;-75
2023/09/08 11:19:54;;;;;;;703.35;661.38;;;30.00;99.90;;;;;;5052315;28;20040;-74
2023/09/08 11:22:25;;;;;;;1999.90;999.90;;;30.10;99.90;;;;;;5050271;28;20033;-75
2023/09/08 11:24:56;;;;;;;1292.07;775.40;;;30.10;99.90;;;;;;5052814;28;20048;-75
2023/09/08 11:27:23;;;;;;;1999.90;999.90;;;30.30;99.90;;;;;;5051850;28;20051;-75
2023/09/08 11:29:50;;;;;;;1999.90;999.90;;;30.40;99.90;;;;;;5051462;28;20033;-75
2023/09/08 11:32:16;;;;;;;1999.90;999.90;;;30.60;99.90;;;;;;5052141;28;20518;-75
2023/09/08 11:34:42;;;;;;;1999.90;999.90;;;30.80;99.90;;;;;;5052600;28;20037;-75
2023/09/08 11:37:13;;;;;;;1999.90;999.90;;;30.90;99.90;;;;;;5052250;28;20383;-75
2023/09/08 11:39:42;;;;;;;1999.90;999.90;;;31.10;99.90;;;;;;5052553;28;20051;-75
2023/09/08 11:42:09;;;;;;;1999.90;999.90;;;31.20;99.90;;;;;;5051166;28;20036;-75
2023/09/08 11:44:35;;;;;;;1999.90;999.90;;;31.20;99.90;;;;;;5051398;28;20296;-75
2023/09/08 11:47:03;;;;;;;1999.90;999.90;;;31.10;99.90;;;;;;5051215;28;20040;-75
2023/09/08 11:49:36;;;;;;;1999.90;999.90;;;31.00;99.90;;;;;;5050174;28;20041;-75
2023/09/08 11:52:03;;;;;;;1999.90;999.90;;;31.00;99.90;;;;;;5050880;28;20037;-75
2023/09/08 11:54:39;;;;;;;1999.90;999.90;;;31.10;99.90;;;;;;5052004;28;20041;-75
2023/09/08 11:57:07;;;;;;;1999.90;999.90;;;31.20;99.90;;;;;;5050739;28;20044;-75
2023/09/08 11:59:34;;;;;;;1999.90;999.90;;;31.20;99.90;;;;;;5050429;28;20041;-75
2023/09/08 12:02:00;;;;;;;1999.90;999.90;;;31.10;99.90;;;;;;5050901;28;20073;-75
2023/09/08 12:04:26;;;;;;;1999.90;999.90;;;31.10;99.90;;;;;;5034103;28;20055;-75
2023/09/08 12:06:53;;;;;;;1999.90;999.90;;;31.20;99.90;;;;;;5050594;28;20040;-75
2023/09/08 12:09:22;;;;;;;1999.90;999.90;;;31.40;99.90;;;;;;5051027;28;20036;-75